Time;durP1;ratioP1;P1;durP2;ratioP2;P2;SDS_P1;SDS_P2;PMS_P1;PMS_P2;Temp;Humidity;BMP_temperature;BMP_pressure;BME280_temperature;BME280_humidity;BME280_pressure;Samples;Min_cycle;Max_cycle;Signal;HPM_P1;HPM_P2
2022/08/19 00:00:40;;;;;;;23.65;21.17;;;21.70;99.90;;;;;;8425510;28;20047;-77
2022/08/19 00:04:46;;;;;;;25.58;22.48;;;21.70;99.90;;;;;;8406986;28;20045;-76
2022/08/19 00:08:51;;;;;;;24.30;21.70;;;21.60;99.90;;;;;;8426507;28;20040;-78
2022/08/19 00:12:53;;;;;;;26.35;23.55;;;21.60;99.90;;;;;;8418446;28;20485;-77
2022/08/19 00:16:55;;;;;;;25.27;22.58;;;21.60;99.90;;;;;;8405516;28;20041;-77
2022/08/19 00:20:59;;;;;;;26.58;23.63;;;21.50;99.90;;;;;;8403099;28;20512;-75
2022/08/19 00:25:01;;;;;;;26.35;23.40;;;21.50;99.90;;;;;;8410327;28;20091;-76
2022/08/19 00:29:04;;;;;;;26.50;23.42;;;21.40;99.90;;;;;;8417495;28;20055;-77
2022/08/19 00:33:08;;;;;;;28.42;23.70;;;21.40;99.90;;;;;;8416193;28;20055;-79
2022/08/19 00:37:11;;;;;;;24.73;21.65;;;21.30;99.90;;;;;;8409307;28;20044;-76
2022/08/19 00:41:17;;;;;;;26.58;23.08;;;21.30;99.90;;;;;;8399190;28;20051;-77
2022/08/19 00:45:24;;;;;;;24.88;22.00;;;21.20;99.90;;;;;;8408365;28;20068;-77
2022/08/19 00:49:32;;;;;;;26.40;22.75;;;21.20;99.90;;;;;;8425507;28;20139;-76
2022/08/19 00:53:35;;;;;;;28.73;22.73;;;21.20;99.90;;;;;;8412478;28;20756;-77
2022/08/19 00:57:41;;;;;;;25.73;22.90;;;21.10;99.90;;;;;;8421558;28;20073;-76
2022/08/19 01:01:46;;;;;;;28.58;23.92;;;21.10;99.90;;;;;;8425647;28;20052;-76
2022/08/19 01:05:50;;;;;;;25.40;22.48;;;21.00;99.90;;;;;;8448194;28;20040;-77
2022/08/19 01:09:55;;;;;;;26.38;22.23;;;21.00;99.90;;;;;;8444470;28;20040;-76
2022/08/19 01:13:57;;;;;;;28.48;23.05;;;21.00;99.90;;;;;;8443380;28;20040;-76
2022/08/19 01:18:03;;;;;;;26.60;21.65;;;21.00;99.90;;;;;;8435363;28;20051;-76
2022/08/19 01:22:13;;;;;;;26.80;21.95;;;21.00;99.90;;;;;;8406462;28;20048;-78
2022/08/19 01:26:21;;;;;;;27.67;23.73;;;21.00;99.90;;;;;;8411648;28;20451;-77
2022/08/19 01:30:29;;;;;;;27.05;22.60;;;20.90;99.90;;;;;;8413005;28;20321;-77
2022/08/19 01:34:31;;;;;;;27.42;23.00;;;20.90;99.90;;;;;;8397218;28;20482;-76
2022/08/19 01:38:39;;;;;;;29.20;22.58;;;20.90;99.90;;;;;;8421494;28;20045;-76
2022/08/19 01:42:42;;;;;;;29.02;22.77;;;20.90;99.90;;;;;;8405741;28;20131;-76
2022/08/19 01:46:46;;;;;;;27.13;22.42;;;20.90;99.90;;;;;;8420766;28;20040;-77
2022/08/19 01:50:48;;;;;;;25.42;22.40;;;20.90;99.90;;;;;;8391755;28;20122;-76
2022/08/19 01:54:50;;;;;;;28.15;23.38;;;20.90;99.90;;;;;;8413532;28;20036;-75
2022/08/19 01:59:00;;;;;;;24.33;20.88;;;20.90;99.90;;;;;;8401239;28;20036;-75
2022/08/19 02:03:02;;;;;;;26.40;21.50;;;20.90;99.90;;;;;;8420704;28;20053;-75
2022/08/19 02:07:05;;;;;;;28.02;22.55;;;20.80;99.90;;;;;;8419267;28;20043;-75
2022/08/19 02:11:08;;;;;;;27.20;21.70;;;20.80;99.90;;;;;;8419999;28;20485;-73
2022/08/19 02:15:12;;;;;;;27.48;21.70;;;20.70;99.90;;;;;;8421395;28;20044;-75
2022/08/19 02:19:14;;;;;;;25.38;21.58;;;20.80;99.90;;;;;;8416549;28;20473;-76
2022/08/19 02:23:17;;;;;;;27.52;22.15;;;20.80;99.90;;;;;;8421098;28;20051;-76
2022/08/19 02:27:19;;;;;;;26.08;21.40;;;20.80;99.90;;;;;;8415251;28;20041;-77
2022/08/19 02:31:27;;;;;;;28.10;21.92;;;20.80;99.90;;;;;;8413127;28;21712;-76
2022/08/19 02:35:29;;;;;;;26.38;22.00;;;20.80;99.90;;;;;;8409667;28;20049;-75
2022/08/19 02:39:31;;;;;;;25.95;20.35;;;20.70;99.90;;;;;;8419796;28;20045;-76
2022/08/19 02:43:35;;;;;;;27.48;22.05;;;20.70;99.90;;;;;;8419714;28;20044;-76
2022/08/19 02:47:39;;;;;;;25.95;21.40;;;20.70;99.90;;;;;;8420622;28;20532;-74
2022/08/19 02:51:44;;;;;;;28.20;22.33;;;20.70;99.90;;;;;;8418797;28;20474;-74
2022/08/19 02:55:47;;;;;;;26.77;21.40;;;20.70;99.90;;;;;;8419942;28;20044;-74
2022/08/19 02:59:49;;;;;;;27.10;21.10;;;20.80;99.90;;;;;;8418590;28;20036;-76
2022/08/19 03:03:53;;;;;;;29.15;21.60;;;20.70;99.90;;;;;;8413747;28;20055;-77
2022/08/19 03:07:55;;;;;;;27.63;20.67;;;20.80;99.90;;;;;;8414863;28;20043;-74
2022/08/19 03:11:57;;;;;;;27.27;22.08;;;20.80;99.90;;;;;;8413790;28;20040;-75
2022/08/19 03:15:59;;;;;;;27.85;22.23;;;20.70;99.90;;;;;;8417647;28;20040;-75
2022/08/19 03:20:04;;;;;;;25.58;21.52;;;20.70;99.90;;;;;;8419800;28;20052;-76
2022/08/19 03:24:09;;;;;;;30.77;21.95;;;20.70;99.90;;;;;;8413372;28;20098;-76
2022/08/19 03:28:12;;;;;;;29.88;22.67;;;20.70;99.90;;;;;;8412888;28;20117;-75
2022/08/19 03:32:15;;;;;;;27.92;22.40;;;20.70;99.90;;;;;;8405676;28;20051;-74
2022/08/19 03:36:22;;;;;;;27.08;21.88;;;20.60;99.90;;;;;;8413666;28;20048;-78
2022/08/19 03:40:25;;;;;;;28.05;21.38;;;20.60;99.90;;;;;;8417200;28;20053;-78
2022/08/19 03:44:27;;;;;;;27.77;22.95;;;20.60;99.90;;;;;;8410453;28;20044;-78
2022/08/19 03:48:30;;;;;;;24.58;20.75;;;20.60;99.90;;;;;;8419752;28;20057;-78
2022/08/19 03:52:34;;;;;;;29.90;22.63;;;20.60;99.90;;;;;;8411762;28;20056;-76
2022/08/19 03:56:38;;;;;;;28.40;22.60;;;20.60;99.90;;;;;;8417746;28;20048;-77
2022/08/19 04:00:43;;;;;;;26.98;21.67;;;20.60;99.90;;;;;;8416005;28;20044;-77
2022/08/19 04:04:45;;;;;;;27.38;22.17;;;20.60;99.90;;;;;;8412881;28;20057;-76
2022/08/19 04:08:51;;;;;;;27.90;22.80;;;20.60;99.90;;;;;;8404571;28;20043;-78
2022/08/19 04:12:53;;;;;;;27.90;22.00;;;20.60;99.90;;;;;;8418606;28;20040;-75
2022/08/19 04:16:55;;;;;;;28.52;21.92;;;20.60;99.90;;;;;;8416019;28;20044;-77
2022/08/19 04:20:57;;;;;;;28.00;22.98;;;20.60;99.90;;;;;;8413821;28;20047;-77
2022/08/19 04:25:01;;;;;;;30.10;22.73;;;20.60;99.90;;;;;;8415601;28;20047;-76
2022/08/19 04:29:07;;;;;;;27.73;22.48;;;20.40;99.90;;;;;;8413299;28;20040;-76
2022/08/19 04:33:09;;;;;;;29.08;22.27;;;20.40;99.90;;;;;;8413937;28;20075;-77
2022/08/19 04:37:12;;;;;;;29.48;23.27;;;20.30;99.90;;;;;;8422854;28;20055;-78
2022/08/19 04:45:38;;;;;;;31.00;23.52;;;20.30;99.90;;;;;;8422595;28;20130;-77
2022/08/19 04:49:41;;;;;;;30.27;23.75;;;20.40;99.90;;;;;;8408675;28;20045;-77
2022/08/19 04:53:43;;;;;;;31.73;24.15;;;20.30;99.90;;;;;;8392149;28;20044;-76
2022/08/19 04:57:47;;;;;;;30.02;23.30;;;20.30;99.90;;;;;;8421216;28;20042;-78
2022/08/19 05:01:49;;;;;;;31.13;23.75;;;20.30;99.90;;;;;;8408838;28;20101;-79
2022/08/19 05:05:51;;;;;;;30.35;23.85;;;20.30;99.90;;;;;;8406840;28;20116;-79
2022/08/19 05:09:54;;;;;;;32.03;24.25;;;20.20;99.90;;;;;;8416875;28;20040;-77
2022/08/19 05:13:58;;;;;;;28.00;23.73;;;20.20;99.90;;;;;;8422240;28;20048;-78
2022/08/19 05:22:35;;;;;;;31.77;24.77;;;20.30;99.90;;;;;;8415869;28;20108;-78
2022/08/19 05:26:37;;;;;;;27.70;22.35;;;20.40;99.90;;;;;;8412471;28;20143;-78
2022/08/19 05:30:43;;;;;;;28.75;22.85;;;20.40;99.90;;;;;;8422467;28;20043;-78
2022/08/19 05:34:45;;;;;;;29.98;22.58;;;20.40;99.90;;;;;;8422896;28;20101;-76
2022/08/19 05:38:49;;;;;;;30.90;23.77;;;20.40;99.90;;;;;;8422656;28;20040;-79
2022/08/19 05:42:53;;;;;;;30.75;24.58;;;20.40;99.90;;;;;;8416848;28;20044;-78
2022/08/19 05:46:57;;;;;;;30.98;24.63;;;20.30;99.90;;;;;;8414838;28;20478;-79
2022/08/19 05:51:06;;;;;;;30.98;25.17;;;20.40;99.90;;;;;;8420860;28;20070;-79
2022/08/19 05:55:09;;;;;;;34.47;25.20;;;20.30;99.90;;;;;;8415125;28;20072;-77
2022/08/19 05:59:12;;;;;;;32.78;24.45;;;20.40;99.90;;;;;;8400892;28;20052;-77
2022/08/19 06:03:15;;;;;;;33.50;25.40;;;20.40;99.90;;;;;;8414301;28;20048;-76
2022/08/19 06:07:17;;;;;;;30.58;24.45;;;20.50;99.90;;;;;;8428452;28;20055;-77
2022/08/19 06:11:22;;;;;;;36.85;25.58;;;20.50;99.90;;;;;;8410506;28;20526;-76
2022/08/19 06:15:26;;;;;;;33.85;24.55;;;20.50;99.90;;;;;;8418669;28;20052;-78
2022/08/19 06:19:31;;;;;;;29.60;24.42;;;20.50;99.90;;;;;;8408680;28;20083;-78
2022/08/19 06:23:34;;;;;;;32.17;24.60;;;20.50;99.90;;;;;;8398187;28;20053;-78
2022/08/19 06:27:37;;;;;;;32.78;24.50;;;20.50;99.90;;;;;;8430735;28;20093;-78
2022/08/19 06:31:43;;;;;;;35.20;25.52;;;20.50;99.90;;;;;;8431274;28;20154;-80
2022/08/19 06:35:46;;;;;;;32.05;24.45;;;20.50;99.90;;;;;;8370338;28;20044;-79
2022/08/19 06:39:49;;;;;;;31.33;24.85;;;20.50;99.90;;;;;;8414765;28;20051;-79
2022/08/19 06:43:51;;;;;;;35.97;26.20;;;20.40;99.90;;;;;;8397841;28;20048;-77
2022/08/19 06:47:55;;;;;;;33.17;25.55;;;20.40;99.90;;;;;;8397969;28;20051;-78
2022/08/19 06:51:59;;;;;;;32.78;26.13;;;20.40;99.90;;;;;;8398440;28;20041;-79
2022/08/19 06:56:02;;;;;;;33.10;26.33;;;20.40;99.90;;;;;;8415665;28;20414;-78
2022/08/19 07:00:10;;;;;;;36.22;27.23;;;20.40;99.90;;;;;;8430928;28;20044;-78
2022/08/19 07:04:13;;;;;;;34.13;27.40;;;20.40;99.90;;;;;;8429248;28;20056;-79
2022/08/19 07:08:17;;;;;;;34.88;26.52;;;20.40;99.90;;;;;;8408508;28;20483;-79
2022/08/19 07:12:19;;;;;;;38.33;27.23;;;20.40;99.90;;;;;;8399166;28;20055;-80
2022/08/19 07:16:21;;;;;;;34.80;26.98;;;20.30;99.90;;;;;;8397760;28;20056;-78
2022/08/19 07:20:23;;;;;;;35.47;27.30;;;20.30;99.90;;;;;;8398425;28;20050;-79
2022/08/19 07:24:28;;;;;;;35.15;27.27;;;20.30;99.90;;;;;;8398003;28;20047;-79
2022/08/19 07:28:30;;;;;;;34.53;26.70;;;20.40;99.90;;;;;;8398539;28;20490;-79
2022/08/19 07:32:32;;;;;;;35.25;26.90;;;20.50;99.90;;;;;;8397325;28;20402;-79
2022/08/19 07:36:37;;;;;;;32.92;25.35;;;20.60;99.90;;;;;;8398056;28;20052;-78
2022/08/19 07:40:41;;;;;;;33.15;27.02;;;20.50;99.90;;;;;;8398389;28;20044;-79
2022/08/19 07:44:43;;;;;;;36.38;26.92;;;20.50;99.90;;;;;;8403836;28;20623;-79
2022/08/19 07:48:46;;;;;;;34.88;26.80;;;20.60;99.90;;;;;;8415057;28;20561;-79
2022/08/19 07:52:50;;;;;;;31.83;25.70;;;20.60;99.90;;;;;;8432873;28;20056;-80
2022/08/19 07:56:54;;;;;;;34.55;26.80;;;20.60;99.90;;;;;;8432682;28;20044;-78
2022/08/19 08:00:56;;;;;;;34.72;26.63;;;20.50;99.90;;;;;;8430621;28;20048;-79
2022/08/19 08:09:21;;;;;;;38.08;27.63;;;20.50;99.90;;;;;;8398282;28;20090;-79
2022/08/19 08:13:26;;;;;;;37.70;27.73;;;20.50;99.90;;;;;;8398582;28;20048;-79
2022/08/19 08:17:30;;;;;;;37.90;29.77;;;20.50;99.90;;;;;;8399842;28;20410;-78
2022/08/19 08:21:32;;;;;;;34.85;27.70;;;20.50;99.90;;;;;;8398465;28;20049;-79
2022/08/19 08:25:36;;;;;;;37.80;28.52;;;20.50;99.90;;;;;;8398280;28;20486;-78
2022/08/19 08:29:40;;;;;;;35.75;27.88;;;20.50;99.90;;;;;;8397580;28;20044;-79
2022/08/19 08:33:42;;;;;;;34.85;27.52;;;20.50;99.90;;;;;;8398502;28;20059;-78
2022/08/19 08:37:45;;;;;;;36.45;27.35;;;20.40;99.90;;;;;;8397780;28;20080;-78
2022/08/19 08:41:54;;;;;;;32.88;27.75;;;20.40;99.90;;;;;;8397375;28;20063;-79
2022/08/19 08:46:04;;;;;;;35.17;27.75;;;20.40;99.90;;;;;;8398297;28;20487;-79
2022/08/19 08:50:16;;;;;;;35.00;27.70;;;20.40;99.90;;;;;;8430647;28;20048;-79
2022/08/19 08:54:25;;;;;;;36.15;28.58;;;20.40;99.90;;;;;;8430860;28;20052;-79
2022/08/19 08:58:44;;;;;;;35.78;28.02;;;20.30;99.90;;;;;;8433678;28;20086;-77
2022/08/19 09:02:47;;;;;;;36.78;27.92;;;20.40;99.90;;;;;;8425093;28;20048;-76
2022/08/19 09:06:57;;;;;;;33.58;27.00;;;20.40;99.90;;;;;;8433055;28;20044;-76
2022/08/19 09:10:59;;;;;;;33.67;26.50;;;20.40;99.90;;;;;;8411488;28;20053;-76
2022/08/19 09:15:07;;;;;;;35.70;26.20;;;20.50;99.90;;;;;;8395952;28;20045;-75
2022/08/19 09:19:11;;;;;;;36.97;26.92;;;20.50;99.90;;;;;;8398857;28;20041;-77
2022/08/19 09:23:14;;;;;;;31.70;25.15;;;20.50;99.90;;;;;;8402824;28;20044;-79
2022/08/19 09:27:16;;;;;;;36.72;29.02;;;20.50;99.90;;;;;;8404627;28;20477;-77
2022/08/19 09:31:21;;;;;;;33.63;26.73;;;20.60;99.90;;;;;;8410767;28;20052;-77
2022/08/19 09:35:28;;;;;;;33.75;27.02;;;20.60;99.90;;;;;;8413811;28;20059;-80
2022/08/19 09:39:31;;;;;;;30.95;25.33;;;20.60;99.90;;;;;;8432402;28;20073;-77
2022/08/19 09:43:36;;;;;;;33.22;26.33;;;20.60;99.90;;;;;;8432084;28;20414;-79
2022/08/19 09:47:38;;;;;;;33.95;26.30;;;20.70;99.90;;;;;;8432984;28;20063;-79
2022/08/19 09:51:42;;;;;;;35.30;27.83;;;20.70;99.90;;;;;;8433154;28;20074;-79
2022/08/19 09:55:44;;;;;;;33.58;25.63;;;20.70;99.90;;;;;;8428510;28;20045;-78
2022/08/19 09:59:46;;;;;;;31.30;27.00;;;20.70;99.90;;;;;;8427817;28;20048;-78
2022/08/19 10:03:52;;;;;;;33.08;26.55;;;20.70;99.90;;;;;;8431915;28;20056;-79
2022/08/19 10:07:56;;;;;;;34.10;27.02;;;20.70;99.90;;;;;;8432705;28;20391;-79
2022/08/19 10:12:00;;;;;;;35.40;27.50;;;20.80;99.90;;;;;;8430743;28;20511;-80
2022/08/19 10:16:08;;;;;;;38.17;29.02;;;20.70;99.90;;;;;;8431958;28;20079;-77
2022/08/19 10:20:11;;;;;;;35.10;27.95;;;20.70;99.90;;;;;;8432709;28;20052;-78
2022/08/19 10:24:15;;;;;;;32.63;26.92;;;20.70;99.90;;;;;;8431929;28;20048;-79
2022/08/19 10:28:17;;;;;;;38.22;28.60;;;20.70;99.90;;;;;;8426336;28;20051;-79
2022/08/19 10:32:21;;;;;;;34.80;28.23;;;20.70;99.90;;;;;;8431410;28;20387;-78
2022/08/19 10:36:25;;;;;;;37.70;28.35;;;20.70;99.90;;;;;;8430888;28;20592;-80
2022/08/19 10:40:29;;;;;;;36.58;29.75;;;20.70;99.90;;;;;;8422336;28;20049;-78
2022/08/19 10:44:35;;;;;;;35.53;28.52;;;20.70;99.90;;;;;;8397793;28;20059;-78
2022/08/19 10:48:37;;;;;;;37.13;28.77;;;20.70;99.90;;;;;;8400959;28;20056;-78
2022/08/19 10:52:40;;;;;;;36.65;28.48;;;20.70;99.90;;;;;;8397335;28;20040;-79
2022/08/19 10:56:52;;;;;;;35.28;28.05;;;20.70;99.90;;;;;;8398548;28;20053;-80
2022/08/19 11:00:57;;;;;;;37.20;29.58;;;20.70;99.90;;;;;;8398426;28;20051;-78
2022/08/19 11:04:59;;;;;;;39.33;28.50;;;20.70;99.90;;;;;;8409733;28;20048;-78
2022/08/19 11:09:01;;;;;;;36.55;28.88;;;20.60;99.90;;;;;;8413970;28;20048;-75
2022/08/19 11:13:05;;;;;;;35.22;28.35;;;20.70;99.90;;;;;;8415012;28;20090;-77
2022/08/19 11:17:07;;;;;;;38.40;29.42;;;20.70;99.90;;;;;;8410390;28;20045;-75
2022/08/19 11:21:13;;;;;;;33.80;28.02;;;20.70;99.90;;;;;;8422855;28;20150;-78
2022/08/19 11:25:15;;;;;;;37.80;29.08;;;20.70;99.90;;;;;;8405478;28;20052;-77
2022/08/19 11:29:25;;;;;;;36.22;28.08;;;20.60;99.90;;;;;;8412517;28;20052;-79
2022/08/19 11:33:27;;;;;;;41.63;32.25;;;20.60;99.90;;;;;;8382144;28;20044;-77
2022/08/19 11:37:29;;;;;;;39.15;30.98;;;20.60;99.90;;;;;;8414112;28;20040;-77
2022/08/19 11:41:31;;;;;;;39.53;30.75;;;20.50;99.90;;;;;;8417905;28;20490;-76
2022/08/19 11:45:35;;;;;;;38.03;30.77;;;20.40;99.90;;;;;;8412380;28;20071;-77
2022/08/19 11:49:37;;;;;;;35.45;29.13;;;20.30;99.90;;;;;;8418728;28;20044;-77
2022/08/19 11:53:40;;;;;;;35.45;29.05;;;20.40;99.90;;;;;;8415414;28;20056;-78
2022/08/19 11:57:43;;;;;;;36.55;28.42;;;20.40;99.90;;;;;;8420214;28;20044;-77
2022/08/19 12:01:46;;;;;;;33.67;27.70;;;20.30;99.90;;;;;;8420786;28;20047;-77
2022/08/19 12:05:49;;;;;;;35.97;28.67;;;20.20;99.90;;;;;;8402313;28;20421;-78
2022/08/19 12:09:51;;;;;;;37.78;30.40;;;20.30;99.90;;;;;;8416815;28;20847;-79
2022/08/19 12:13:54;;;;;;;36.10;28.38;;;20.20;99.90;;;;;;8421057;28;20051;-76
2022/08/19 12:17:58;;;;;;;35.15;27.92;;;20.20;99.90;;;;;;8399906;28;20049;-77
2022/08/19 12:22:02;;;;;;;34.38;28.33;;;20.30;99.90;;;;;;8420849;28;20040;-78
2022/08/19 12:26:05;;;;;;;34.25;27.70;;;20.30;99.90;;;;;;8406850;28;20053;-79
2022/08/19 12:30:11;;;;;;;35.97;26.40;;;20.30;99.90;;;;;;8411293;28;20048;-79
2022/08/19 12:34:14;;;;;;;34.38;28.85;;;20.30;99.90;;;;;;8397957;28;20048;-80
2022/08/19 12:38:17;;;;;;;34.67;27.90;;;20.30;99.90;;;;;;8413491;28;20471;-78
2022/08/19 12:42:21;;;;;;;33.47;27.85;;;20.30;99.90;;;;;;8415884;28;20052;-78
2022/08/19 12:46:23;;;;;;;34.35;28.05;;;20.30;99.90;;;;;;8420484;28;20463;-78
2022/08/19 12:50:28;;;;;;;33.92;26.73;;;20.30;99.90;;;;;;8419949;28;20052;-79
2022/08/19 12:54:31;;;;;;;31.92;26.90;;;20.40;99.90;;;;;;8408890;28;20074;-77
2022/08/19 12:58:34;;;;;;;34.88;27.85;;;20.40;99.90;;;;;;8409828;28;20044;-79
2022/08/19 13:02:36;;;;;;;35.35;28.23;;;20.40;99.90;;;;;;8412326;28;20099;-78
2022/08/19 13:06:40;;;;;;;34.88;28.05;;;20.40;99.90;;;;;;8402775;28;20048;-77
2022/08/19 13:10:42;;;;;;;33.42;28.05;;;20.40;99.90;;;;;;8413853;28;20044;-78
2022/08/19 13:14:49;;;;;;;37.03;29.23;;;20.40;99.90;;;;;;8406501;28;20051;-76
2022/08/19 13:18:52;;;;;;;33.45;28.08;;;20.40;99.90;;;;;;8403427;28;20457;-78
2022/08/19 13:22:57;;;;;;;35.47;27.65;;;20.30;99.90;;;;;;8412622;28;20044;-77
2022/08/19 13:26:59;;;;;;;31.75;26.77;;;20.40;99.90;;;;;;8409943;28;20048;-78
2022/08/19 13:35:21;;;;;;;30.10;25.45;;;20.30;99.90;;;;;;8403385;28;20087;-77
2022/08/19 13:39:32;;;;;;;30.92;25.02;;;20.40;99.90;;;;;;8416856;28;20530;-80
2022/08/19 13:43:34;;;;;;;32.10;26.48;;;20.40;99.90;;;;;;8411470;28;20082;-76
2022/08/19 13:47:42;;;;;;;31.67;26.48;;;20.50;99.90;;;;;;8414653;28;20410;-77
2022/08/19 13:51:45;;;;;;;29.58;25.08;;;20.50;99.90;;;;;;8397758;28;20486;-80
2022/08/19 13:55:50;;;;;;;32.85;26.83;;;20.50;99.90;;;;;;8404012;28;20047;-77
2022/08/19 13:59:52;;;;;;;27.17;23.15;;;20.40;99.90;;;;;;8414170;28;20044;-77
2022/08/19 14:03:54;;;;;;;30.50;25.42;;;20.40;99.90;;;;;;8416167;28;20049;-76
2022/08/19 14:07:56;;;;;;;29.08;25.80;;;20.50;99.90;;;;;;8406366;28;20044;-76
2022/08/19 14:12:00;;;;;;;34.03;26.52;;;20.50;99.90;;;;;;8402818;28;20040;-76
2022/08/19 14:16:02;;;;;;;29.33;24.73;;;20.50;99.90;;;;;;8412561;28;20501;-76
2022/08/19 14:20:08;;;;;;;30.45;25.52;;;20.50;99.90;;;;;;8410365;28;20047;-78
2022/08/19 14:24:10;;;;;;;28.77;24.10;;;20.50;99.90;;;;;;8401050;28;20064;-77
2022/08/19 14:28:14;;;;;;;28.02;23.58;;;20.50;99.90;;;;;;8411188;28;20109;-77
2022/08/19 14:32:16;;;;;;;29.15;25.13;;;20.50;99.90;;;;;;8406579;28;20049;-79
2022/08/19 14:36:19;;;;;;;31.48;24.10;;;20.50;99.90;;;;;;8416737;28;20054;-76
2022/08/19 14:40:25;;;;;;;30.38;25.08;;;20.50;99.90;;;;;;8409952;28;20052;-78
2022/08/19 14:44:28;;;;;;;29.08;24.75;;;20.50;99.90;;;;;;8414540;28;20054;-76
2022/08/19 14:48:31;;;;;;;28.77;24.13;;;20.50;99.90;;;;;;8414276;28;20489;-77
2022/08/19 14:52:33;;;;;;;27.90;24.33;;;20.40;99.90;;;;;;8398165;28;20516;-77
2022/08/19 14:56:35;;;;;;;27.15;23.70;;;20.40;99.90;;;;;;8416269;28;20051;-76
2022/08/19 15:00:39;;;;;;;25.33;21.75;;;20.50;99.90;;;;;;8406094;28;20036;-78
2022/08/19 15:04:41;;;;;;;27.15;22.75;;;20.50;99.90;;;;;;8402888;28;20047;-76
2022/08/19 15:08:44;;;;;;;29.02;23.60;;;20.50;99.90;;;;;;8410144;28;20044;-76
2022/08/19 15:12:47;;;;;;;26.63;22.52;;;20.50;99.90;;;;;;8411200;28;20117;-78
2022/08/19 15:16:50;;;;;;;27.95;22.63;;;20.50;99.90;;;;;;8404000;28;20048;-76
2022/08/19 15:20:52;;;;;;;26.42;21.50;;;20.60;99.90;;;;;;8408714;28;20055;-77
2022/08/19 15:24:55;;;;;;;28.20;23.25;;;20.70;99.90;;;;;;8415614;28;20051;-77
2022/08/19 15:28:59;;;;;;;26.27;23.00;;;20.70;99.90;;;;;;8412225;28;20072;-79
2022/08/19 15:33:02;;;;;;;25.80;22.88;;;20.80;99.90;;;;;;8409785;28;20048;-78
2022/08/19 15:37:05;;;;;;;26.55;22.63;;;20.90;99.90;;;;;;8403060;28;20048;-77
2022/08/19 15:41:23;;;;;;;28.17;22.40;;;20.90;99.90;;;;;;8408746;28;20059;-79
2022/08/19 15:45:31;;;;;;;30.27;22.80;;;20.90;99.90;;;;;;8398992;28;20049;-78
2022/08/19 15:49:36;;;;;;;26.67;23.35;;;21.00;99.90;;;;;;8380092;28;20040;-75
2022/08/19 15:53:39;;;;;;;25.55;21.73;;;20.90;99.90;;;;;;8399249;28;20051;-78
2022/08/19 16:06:28;;;;;;;25.13;21.47;;;21.40;99.90;;;;;;8348528;28;20411;-76
2022/08/19 16:10:30;;;;;;;25.93;22.13;;;21.60;99.90;;;;;;8338945;28;20045;-76
2022/08/19 16:14:36;;;;;;;24.05;21.55;;;21.80;99.90;;;;;;8341913;28;20045;-76
2022/08/19 16:18:38;;;;;;;22.83;19.98;;;21.90;99.90;;;;;;8345833;28;20045;-76
2022/08/19 16:22:43;;;;;;;24.58;21.13;;;22.10;99.90;;;;;;8345859;28;20770;-76
2022/08/19 16:26:46;;;;;;;23.45;20.05;;;22.10;99.90;;;;;;8340753;28;20045;-76
2022/08/19 16:30:50;;;;;;;22.33;17.92;;;22.30;99.90;;;;;;8325980;28;20487;-77
2022/08/19 16:34:52;;;;;;;23.55;20.48;;;22.30;99.90;;;;;;8347667;28;20048;-76
2022/08/19 16:38:55;;;;;;;24.60;21.90;;;22.30;99.90;;;;;;8324993;28;20111;-77
2022/08/19 16:42:58;;;;;;;25.58;21.10;;;22.20;99.90;;;;;;8334312;28;20060;-75
2022/08/19 16:47:00;;;;;;;25.98;21.60;;;22.30;99.90;;;;;;8342426;28;20041;-77
2022/08/19 16:51:07;;;;;;;24.67;19.70;;;22.30;99.90;;;;;;8345454;28;20036;-75
2022/08/19 16:55:10;;;;;;;23.92;21.52;;;22.20;99.90;;;;;;8346834;28;20064;-75
2022/08/19 16:59:14;;;;;;;18.20;13.18;;;22.10;99.90;;;;;;8347617;28;20054;-75
2022/08/19 17:03:18;;;;;;;23.73;19.27;;;22.10;99.90;;;;;;8366586;28;20063;-75
2022/08/19 17:07:20;;;;;;;22.70;19.35;;;22.10;99.90;;;;;;8402131;28;20047;-78
2022/08/19 17:11:26;;;;;;;23.55;20.38;;;21.90;99.90;;;;;;8427884;28;20060;-74
2022/08/19 17:15:28;;;;;;;21.33;19.05;;;21.80;99.90;;;;;;8442859;28;20052;-77
2022/08/19 17:19:30;;;;;;;22.58;18.17;;;21.80;99.90;;;;;;8424864;28;20044;-75
2022/08/19 17:23:32;;;;;;;22.42;19.00;;;21.70;99.90;;;;;;8428186;28;20053;-75
2022/08/19 17:27:36;;;;;;;21.48;17.73;;;21.70;99.90;;;;;;8440470;28;21758;-76
2022/08/19 17:31:38;;;;;;;22.02;17.75;;;21.50;99.90;;;;;;8419374;28;20040;-77
2022/08/19 17:35:42;;;;;;;21.80;19.40;;;21.50;99.90;;;;;;8402067;28;20051;-77
2022/08/19 17:39:44;;;;;;;19.98;17.35;;;21.50;99.90;;;;;;8401356;28;20120;-77
2022/08/19 17:43:48;;;;;;;20.95;18.73;;;21.40;99.90;;;;;;8402504;28;20048;-77
2022/08/19 17:47:50;;;;;;;22.48;18.92;;;21.40;99.90;;;;;;8398983;28;20048;-77
2022/08/19 17:51:52;;;;;;;21.67;19.23;;;21.40;99.90;;;;;;8399835;28;20100;-75
2022/08/19 17:55:54;;;;;;;22.13;19.63;;;21.30;99.90;;;;;;8402077;28;20048;-76
2022/08/19 17:59:58;;;;;;;22.70;20.17;;;21.30;99.90;;;;;;8408724;28;20047;-77
2022/08/19 18:04:00;;;;;;;20.65;18.55;;;21.30;99.90;;;;;;8406776;28;20139;-78
2022/08/19 18:08:05;;;;;;;21.15;18.98;;;21.30;99.90;;;;;;8399250;28;20078;-77
2022/08/19 18:12:08;;;;;;;23.25;20.73;;;21.20;99.90;;;;;;8405137;28;20662;-76
2022/08/19 18:16:12;;;;;;;23.38;20.98;;;21.10;99.90;;;;;;8393747;28;20834;-76
2022/08/19 18:20:16;;;;;;;21.88;19.15;;;21.10;99.90;;;;;;8406749;28;20089;-78
2022/08/19 18:24:19;;;;;;;22.08;19.77;;;21.20;99.90;;;;;;8409130;28;20055;-78
2022/08/19 18:28:22;;;;;;;22.48;19.65;;;21.10;99.90;;;;;;8395668;28;20557;-78
2022/08/19 18:32:27;;;;;;;20.25;18.15;;;21.10;99.90;;;;;;8384763;28;20052;-78
2022/08/19 18:36:29;;;;;;;20.40;18.20;;;21.10;99.90;;;;;;8392348;28;20454;-77
2022/08/19 18:49:10;;;;;;;18.77;16.88;;;21.10;99.90;;;;;;8373568;28;20048;-79
2022/08/19 18:53:12;;;;;;;20.23;17.95;;;21.10;99.90;;;;;;8411063;28;20048;-78
2022/08/19 18:57:15;;;;;;;20.00;17.85;;;21.10;99.90;;;;;;8404187;28;20579;-79
2022/08/19 19:01:21;;;;;;;19.17;17.17;;;21.00;99.90;;;;;;8400391;28;20075;-79
2022/08/19 19:05:26;;;;;;;19.80;17.70;;;21.00;99.90;;;;;;8390312;28;20067;-82
2022/08/19 19:09:29;;;;;;;18.77;16.77;;;21.00;99.90;;;;;;8399169;28;20044;-84
2022/08/19 19:13:32;;;;;;;18.90;16.83;;;21.00;99.90;;;;;;8407979;28;20052;-86
2022/08/19 19:17:34;;;;;;;19.92;17.90;;;20.90;99.90;;;;;;8395289;28;20043;-79
2022/08/19 19:21:46;;;;;;;22.08;18.10;;;20.80;99.90;;;;;;8412295;28;20134;-80
2022/08/19 19:25:49;;;;;;;19.55;17.45;;;20.80;99.90;;;;;;8406927;28;20039;-78
2022/08/19 19:29:51;;;;;;;20.55;18.45;;;20.70;99.90;;;;;;8406326;28;20040;-79
2022/08/19 19:33:54;;;;;;;20.23;18.13;;;20.70;99.90;;;;;;8388876;28;20049;-77
2022/08/19 19:38:00;;;;;;;20.42;17.85;;;20.60;99.90;;;;;;8400929;28;20048;-77
2022/08/19 19:42:08;;;;;;;19.83;17.75;;;20.60;99.90;;;;;;8419452;28;20074;-77
2022/08/19 19:46:12;;;;;;;20.95;18.48;;;20.50;99.90;;;;;;8421579;28;20481;-77
2022/08/19 19:50:16;;;;;;;20.20;18.13;;;20.50;99.90;;;;;;8409863;28;20052;-78
2022/08/19 19:54:20;;;;;;;21.38;18.95;;;20.50;99.90;;;;;;8420010;28;20059;-78
2022/08/19 19:58:22;;;;;;;21.08;18.35;;;20.50;99.90;;;;;;8415402;28;20138;-77
2022/08/19 20:02:24;;;;;;;20.60;18.50;;;20.40;99.90;;;;;;8406061;28;20057;-78
2022/08/19 20:06:27;;;;;;;20.23;18.13;;;20.40;99.90;;;;;;8419496;28;20062;-77
2022/08/19 20:10:32;;;;;;;19.75;17.65;;;20.40;99.90;;;;;;8419996;28;20406;-78
2022/08/19 20:14:37;;;;;;;20.08;17.98;;;20.40;99.90;;;;;;8408519;28;20079;-79
2022/08/19 20:18:39;;;;;;;20.23;17.95;;;20.40;99.90;;;;;;8416143;28;20413;-78
2022/08/19 20:22:43;;;;;;;20.92;18.75;;;20.30;99.90;;;;;;8416900;28;20047;-77
2022/08/19 20:26:48;;;;;;;19.38;17.17;;;20.30;99.90;;;;;;8401595;28;20058;-74
2022/08/19 20:30:50;;;;;;;19.00;17.10;;;20.30;99.90;;;;;;8421200;28;20044;-75
2022/08/19 20:34:52;;;;;;;19.88;17.67;;;20.30;99.90;;;;;;8421998;28;20044;-78
2022/08/19 20:38:54;;;;;;;20.08;17.98;;;20.30;99.90;;;;;;8416825;28;20052;-77
2022/08/19 20:42:57;;;;;;;20.95;17.92;;;20.30;99.90;;;;;;8410756;28;20036;-78
2022/08/19 20:46:59;;;;;;;20.00;18.00;;;20.30;99.90;;;;;;8414831;28;20052;-78
2022/08/19 20:51:03;;;;;;;19.60;16.85;;;20.30;99.90;;;;;;8413159;28;20048;-81
2022/08/19 20:55:06;;;;;;;19.50;17.52;;;20.20;99.90;;;;;;8418634;28;20414;-76
2022/08/19 20:59:10;;;;;;;20.75;18.48;;;20.30;99.90;;;;;;8412204;28;20704;-77
2022/08/19 21:03:13;;;;;;;20.52;18.30;;;20.20;99.90;;;;;;8422391;28;20053;-76
2022/08/19 21:07:15;;;;;;;20.52;18.42;;;20.20;99.90;;;;;;8410644;28;20059;-79
2022/08/19 21:11:17;;;;;;;20.90;18.70;;;20.10;99.90;;;;;;8419198;28;20056;-78